Noti, Oregon
Current Conditions -  °F | °C
As of 8:39 PM on Sunday 25 Jan 2015 (Local Time) from KEUG Reporting Station
Moderate Fog Moderate Fog  
Wind Chill: 45°   Ceiling: 100
Heat Index: 45°   Visibility: 0.12mi
Dew Point: 44°   Wind: 3mph
Humidity: 97%   Direction: 170°S
Pressure: 30.01"   Gusts: NA
Location:  44.06°N, 123.45°W
Report Text: KEUG 260439Z 17003KT 1/8SM R16R/1600V1800FT FG VV001 07/07 A3001 RMK AO2 T00720067 $
Loading
Personal Weather Stations






























Interactive Weather Map New forecast layout! Learn more

10-Day Weather Forecast

Advertisements
Track Severe Weather on mobile